createdAt,value
2023-03-01T00:00:06.036Z,78.42
2023-03-01T00:02:38.070Z,78.58
2023-03-01T00:05:05.313Z,78.58
2023-03-01T00:07:31.775Z,78.00
2023-03-01T00:09:58.316Z,78.13
2023-03-01T00:12:24.894Z,78.69
2023-03-01T00:14:51.391Z,78.76
2023-03-01T00:17:18.049Z,79.06
2023-03-01T00:19:44.502Z,78.98
2023-03-01T00:22:11.016Z,78.88
2023-03-01T00:24:37.488Z,78.93
2023-03-01T00:27:03.984Z,78.79
2023-03-01T00:29:30.515Z,78.70
2023-03-01T00:31:57.143Z,78.49
2023-03-01T00:34:23.924Z,78.72
2023-03-01T00:36:50.681Z,78.51
2023-03-01T00:39:17.255Z,78.23
2023-03-01T00:41:43.896Z,78.10
2023-03-01T00:44:10.838Z,78.44
2023-03-01T00:46:37.496Z,78.72
2023-03-01T00:49:05.587Z,78.67
2023-03-01T00:51:32.599Z,78.83
2023-03-01T00:54:00.622Z,78.55
2023-03-01T00:56:27.736Z,78.38
2023-03-01T00:58:54.320Z,78.38
2023-03-01T01:01:23.379Z,77.88
2023-03-01T01:03:54.468Z,77.15
2023-03-01T01:06:22.814Z,77.45
2023-03-01T01:08:49.420Z,77.61
2023-03-01T01:11:16.146Z,77.64
2023-03-01T01:13:42.672Z,77.33
2023-03-01T01:16:09.386Z,77.06
2023-03-01T01:18:36.186Z,77.22
2023-03-01T01:21:10.572Z,77.11
2023-03-01T01:23:37.458Z,76.45
2023-03-01T01:26:15.500Z,76.37
2023-03-01T01:28:42.009Z,76.28
2023-03-01T01:31:08.527Z,76.07
2023-03-01T01:33:35.330Z,76.25
2023-03-01T01:36:01.888Z,76.44
2023-03-01T01:38:28.464Z,76.63
2023-03-01T01:40:55.122Z,76.47
2023-03-01T01:43:26.582Z,76.02
2023-03-01T01:45:58.082Z,76.10
2023-03-01T01:48:28.323Z,76.66
2023-03-01T01:50:58.005Z,77.29
2023-03-01T01:53:25.551Z,77.70
2023-03-01T01:55:54.235Z,77.95
2023-03-01T01:58:22.005Z,78.32
2023-03-01T02:00:49.230Z,78.69
2023-03-01T02:03:20.875Z,79.27
2023-03-01T02:06:00.127Z,79.35
2023-03-01T02:08:28.447Z,79.45
2023-03-01T02:10:57.207Z,78.74
2023-03-01T02:13:24.124Z,78.24
2023-03-01T02:15:50.740Z,77.75
2023-03-01T02:18:19.403Z,78.10
2023-03-01T02:20:46.844Z,77.45
2023-03-01T02:23:13.375Z,76.80
2023-03-01T02:25:47.883Z,76.13
2023-03-01T02:28:14.393Z,75.87
2023-03-01T02:31:01.439Z,75.44
2023-03-01T02:33:28.159Z,75.41
2023-03-01T02:35:55.915Z,75.26
2023-03-01T02:38:23.497Z,75.23
2023-03-01T02:40:51.601Z,75.26
2023-03-01T02:43:18.975Z,75.55
2023-03-01T02:45:49.980Z,75.85
2023-03-01T02:48:16.639Z,75.95
2023-03-01T02:50:58.064Z,75.58
2023-03-01T02:53:29.154Z,76.32
2023-03-01T02:55:55.724Z,75.88
2023-03-01T02:58:22.692Z,76.04
2023-03-01T03:00:50.382Z,75.91
2023-03-01T03:03:20.108Z,75.34
2023-03-01T03:05:47.161Z,75.21
2023-03-01T03:08:13.671Z,75.09
2023-03-01T03:10:40.939Z,75.43
2023-03-01T03:13:09.655Z,75.17
2023-03-01T03:15:37.637Z,74.80
2023-03-01T03:18:05.439Z,75.32
2023-03-01T03:20:32.770Z,74.92
2023-03-01T03:22:59.630Z,75.24
2023-03-01T03:25:27.082Z,74.86
2023-03-01T03:27:57.542Z,74.82
2023-03-01T03:30:28.679Z,74.70
2023-03-01T03:32:55.144Z,75.52
2023-03-01T03:35:23.247Z,75.68
2023-03-01T03:38:06.756Z,75.92
2023-03-01T03:40:37.623Z,75.52
2023-03-01T03:43:08.564Z,76.21
2023-03-01T03:45:36.103Z,76.39
2023-03-01T03:48:03.871Z,76.38
2023-03-01T03:50:30.417Z,77.03
2023-03-01T03:52:56.914Z,76.87
2023-03-01T03:55:23.557Z,76.67
2023-03-01T03:57:52.644Z,76.93
2023-03-01T04:00:20.699Z,76.79
2023-03-01T04:02:47.701Z,76.47
2023-03-01T04:05:15.275Z,76.59
2023-03-01T04:07:42.210Z,76.69
2023-03-01T04:10:11.036Z,76.83
2023-03-01T04:12:37.802Z,77.05
2023-03-01T04:15:14.668Z,77.31
2023-03-01T04:17:42.405Z,77.29
2023-03-01T04:20:12.772Z,77.66
2023-03-01T04:22:39.550Z,78.24
2023-03-01T04:25:07.208Z,78.20
2023-03-01T04:27:34.719Z,78.67
2023-03-01T04:30:01.416Z,79.23
2023-03-01T04:32:28.184Z,78.59
2023-03-01T04:34:54.772Z,78.97
2023-03-01T04:37:21.340Z,79.17
2023-03-01T04:39:48.343Z,79.06
2023-03-01T04:42:18.263Z,79.04
2023-03-01T04:44:45.024Z,79.21
2023-03-01T04:47:11.905Z,78.72
2023-03-01T04:49:38.556Z,78.23
2023-03-01T04:52:05.337Z,78.36
2023-03-01T04:54:32.867Z,77.40
2023-03-01T04:56:59.503Z,77.16
2023-03-01T04:59:26.174Z,77.04
2023-03-01T05:01:53.556Z,77.10
2023-03-01T05:04:20.149Z,77.56
2023-03-01T05:06:46.725Z,77.24
2023-03-01T05:09:13.185Z,77.27
2023-03-01T05:11:39.745Z,77.04
2023-03-01T05:14:07.235Z,76.78
2023-03-01T05:16:36.213Z,77.74
2023-03-01T05:19:12.396Z,77.85
2023-03-01T05:22:02.492Z,77.61
2023-03-01T05:24:29.902Z,77.58
2023-03-01T05:26:56.391Z,77.58
2023-03-01T05:29:25.937Z,77.77
2023-03-01T05:31:55.354Z,78.17
2023-03-01T05:34:26.383Z,78.18
2023-03-01T05:36:54.171Z,78.43
2023-03-01T05:39:22.544Z,77.87
2023-03-01T05:41:49.481Z,78.48
2023-03-01T05:44:16.977Z,78.51
2023-03-01T05:46:43.706Z,78.78
2023-03-01T05:49:10.237Z,79.44
2023-03-01T05:51:36.708Z,79.23
2023-03-01T05:54:03.471Z,79.38
2023-03-01T05:56:30.544Z,78.81
2023-03-01T05:58:57.157Z,78.61
2023-03-01T06:01:23.698Z,78.63
2023-03-01T06:03:50.170Z,78.08
2023-03-01T06:06:16.731Z,78.01
2023-03-01T06:08:43.283Z,77.64
2023-03-01T06:11:09.843Z,77.78
2023-03-01T06:13:36.370Z,77.34
2023-03-01T06:16:05.417Z,77.42
2023-03-01T06:18:32.023Z,77.64
2023-03-01T06:20:58.509Z,77.00
2023-03-01T06:23:25.243Z,77.01
2023-03-01T06:25:51.916Z,76.60
2023-03-01T06:28:18.449Z,76.41
2023-03-01T06:30:45.108Z,75.88
2023-03-01T06:33:11.609Z,76.18
2023-03-01T06:35:38.200Z,75.39
2023-03-01T06:38:05.493Z,75.94
2023-03-01T06:40:32.705Z,75.81
2023-03-01T06:42:59.190Z,75.75
2023-03-01T06:45:25.704Z,75.42
2023-03-01T06:47:52.258Z,75.58
2023-03-01T06:50:19.265Z,75.20
2023-03-01T06:55:13.062Z,75.44
2023-03-01T06:57:40.153Z,75.37
2023-03-01T07:00:08.006Z,74.92
2023-03-01T07:02:34.639Z,74.86
2023-03-01T07:05:01.742Z,74.53
2023-03-01T07:07:28.584Z,73.86
2023-03-01T07:09:55.400Z,73.78
2023-03-01T07:12:21.985Z,73.49
2023-03-01T07:14:48.527Z,73.65
2023-03-01T07:17:15.161Z,73.01
2023-03-01T07:19:41.700Z,73.31
2023-03-01T07:22:11.203Z,72.14
2023-03-01T07:24:37.691Z,72.27
2023-03-01T07:27:04.198Z,71.81
2023-03-01T07:29:31.240Z,71.96
2023-03-01T07:31:57.843Z,71.42
2023-03-01T07:34:24.406Z,70.86
2023-03-01T07:36:51.011Z,71.30
2023-03-01T07:39:18.750Z,71.43
2023-03-01T07:41:46.337Z,70.93
2023-03-01T07:44:12.954Z,70.06
2023-03-01T07:46:39.421Z,68.90
2023-03-01T07:49:06.379Z,68.92
2023-03-01T07:51:33.304Z,69.61
2023-03-01T07:53:59.837Z,68.56
2023-03-01T07:56:26.471Z,69.58
2023-03-01T07:58:52.998Z,66.86
2023-03-01T08:01:20.797Z,64.79
2023-03-01T08:03:47.706Z,64.77
2023-03-01T08:06:15.029Z,63.53
2023-03-01T08:08:41.867Z,62.77
2023-03-01T08:11:09.268Z,61.43
2023-03-01T08:13:35.923Z,60.76
2023-03-01T08:16:07.251Z,59.65
2023-03-01T08:18:33.814Z,55.85
2023-03-01T08:21:07.595Z,56.77
2023-03-01T08:23:37.202Z,57.69
2023-03-01T08:26:05.057Z,57.16
2023-03-01T08:28:31.601Z,58.50
2023-03-01T08:30:58.032Z,60.16
2023-03-01T08:33:25.247Z,58.03
2023-03-01T08:35:51.826Z,57.72
2023-03-01T08:38:18.345Z,57.55
2023-03-01T08:40:44.806Z,57.76
2023-03-01T08:43:11.512Z,57.49
2023-03-01T08:45:38.104Z,58.40
2023-03-01T08:48:04.724Z,57.44
2023-03-01T08:50:31.185Z,56.82
2023-03-01T08:52:57.705Z,56.72
2023-03-01T08:55:24.299Z,55.56
2023-03-01T08:57:50.822Z,55.37
2023-03-01T09:00:18.433Z,55.23
2023-03-01T09:02:44.976Z,55.79
2023-03-01T09:05:11.580Z,56.17
2023-03-01T09:07:38.104Z,56.19
2023-03-01T09:10:04.867Z,57.13
2023-03-01T09:12:31.537Z,56.91
2023-03-01T09:14:58.029Z,57.04
2023-03-01T09:17:24.489Z,57.14
2023-03-01T09:19:50.965Z,56.46
2023-03-01T09:22:17.640Z,56.63
2023-03-01T09:24:45.025Z,56.13
2023-03-01T09:27:12.161Z,57.08
2023-03-01T09:29:38.636Z,56.34
2023-03-01T09:32:05.409Z,56.19
2023-03-01T09:34:32.065Z,56.88
2023-03-01T09:36:58.704Z,55.11
2023-03-01T09:39:25.241Z,55.77
2023-03-01T09:42:05.532Z,54.99
2023-03-01T09:44:37.648Z,54.05
2023-03-01T09:47:04.621Z,54.54
2023-03-01T09:49:32.736Z,54.07
2023-03-01T09:52:13.530Z,53.91
2023-03-01T09:54:40.042Z,53.84
2023-03-01T09:57:12.624Z,53.52
2023-03-01T09:59:58.147Z,52.31
2023-03-01T10:02:32.216Z,51.37
2023-03-01T10:05:06.366Z,52.63
2023-03-01T10:07:35.898Z,53.09
2023-03-01T10:10:05.651Z,52.30
2023-03-01T10:12:35.320Z,50.69
2023-03-01T10:15:13.548Z,50.69
2023-03-01T10:17:56.744Z,50.24
2023-03-01T10:20:25.162Z,49.35
2023-03-01T10:22:53.322Z,51.62
2023-03-01T10:25:42.446Z,49.41
2023-03-01T10:28:18.560Z,48.53
2023-03-01T10:30:46.117Z,49.30
2023-03-01T10:33:23.056Z,51.11
2023-03-01T10:35:49.926Z,49.75
2023-03-01T10:38:17.435Z,48.06
2023-03-01T10:40:59.896Z,46.13
2023-03-01T10:43:27.932Z,47.68
2023-03-01T10:45:54.792Z,47.45
2023-03-01T10:48:25.434Z,47.27
2023-03-01T10:51:05.779Z,47.08
2023-03-01T10:53:38.290Z,49.85
2023-03-01T10:56:07.286Z,49.94
2023-03-01T10:58:35.125Z,48.77
2023-03-01T11:01:06.541Z,49.98
2023-03-01T11:03:37.758Z,47.89
2023-03-01T11:06:22.438Z,50.15
2023-03-01T11:08:53.013Z,50.03
2023-03-01T11:11:22.197Z,48.77
2023-03-01T11:13:55.665Z,48.19
2023-03-01T11:16:26.651Z,48.33
2023-03-01T11:19:15.699Z,48.49
2023-03-01T11:21:51.556Z,47.03
2023-03-01T11:24:18.563Z,48.93
2023-03-01T11:26:52.129Z,47.42
2023-03-01T11:29:37.190Z,47.68
2023-03-01T11:32:08.596Z,46.51
2023-03-01T11:34:43.945Z,48.17
2023-03-01T11:37:29.402Z,47.45
2023-03-01T11:39:59.285Z,48.29
2023-03-01T11:42:46.129Z,49.29
2023-03-01T11:45:13.418Z,47.47
2023-03-01T11:47:46.134Z,48.79
2023-03-01T11:50:20.689Z,46.82
2023-03-01T11:52:55.995Z,45.90
2023-03-01T11:55:38.217Z,46.87
2023-03-01T11:58:04.735Z,48.03
2023-03-01T12:00:50.092Z,47.90
2023-03-01T12:03:34.840Z,47.39
2023-03-01T12:06:04.729Z,46.97
2023-03-01T12:08:57.273Z,46.96
2023-03-01T12:11:24.096Z,47.05
2023-03-01T12:13:50.647Z,47.29
2023-03-01T12:16:25.873Z,46.05
2023-03-01T12:18:58.833Z,46.08
2023-03-01T12:21:31.270Z,48.56
2023-03-01T12:24:30.273Z,47.36
2023-03-01T12:27:05.967Z,47.90
2023-03-01T12:29:35.736Z,47.08
2023-03-01T12:32:20.712Z,47.12
2023-03-01T12:34:55.154Z,45.76
2023-03-01T12:37:43.055Z,47.30
2023-03-01T12:40:17.424Z,46.92
2023-03-01T12:42:58.997Z,45.89
2023-03-01T12:45:28.633Z,45.20
2023-03-01T12:47:55.195Z,46.90
2023-03-01T12:50:24.526Z,46.55
2023-03-01T12:52:58.161Z,45.70
2023-03-01T12:55:38.903Z,47.21
2023-03-01T12:58:34.150Z,46.37
2023-03-01T13:01:16.563Z,46.94
2023-03-01T13:03:49.238Z,47.05
2023-03-01T13:06:24.217Z,46.56
2023-03-01T13:08:59.366Z,47.13
2023-03-01T13:11:26.029Z,45.44
2023-03-01T13:13:55.521Z,45.10
2023-03-01T13:16:33.696Z,46.18
2023-03-01T13:19:19.021Z,46.79
2023-03-01T13:21:46.392Z,47.27
2023-03-01T13:24:31.963Z,46.15
2023-03-01T13:27:09.693Z,47.28
2023-03-01T13:29:49.924Z,46.52
2023-03-01T13:32:43.016Z,46.77
2023-03-01T13:35:10.434Z,48.84
2023-03-01T13:37:38.713Z,48.77
2023-03-01T13:40:19.319Z,48.46
2023-03-01T13:42:59.305Z,47.61
2023-03-01T13:45:33.358Z,47.84
2023-03-01T13:48:02.715Z,47.08
2023-03-01T13:50:30.612Z,46.01
2023-03-01T13:53:00.429Z,47.05
2023-03-01T13:55:26.955Z,46.41
2023-03-01T13:58:00.623Z,46.21
2023-03-01T14:00:28.981Z,47.97
2023-03-01T14:03:06.221Z,48.45
2023-03-01T14:05:33.918Z,46.82
2023-03-01T14:08:00.467Z,46.93
2023-03-01T14:10:31.390Z,46.96
2023-03-01T14:13:16.319Z,48.29
2023-03-01T14:15:45.889Z,47.82
2023-03-01T14:18:15.409Z,47.22
2023-03-01T14:20:52.355Z,47.60
2023-03-01T14:23:20.364Z,49.22
2023-03-01T14:25:48.479Z,48.16
2023-03-01T14:28:15.001Z,47.78
2023-03-01T14:30:46.252Z,49.02
2023-03-01T14:33:21.903Z,48.83
2023-03-01T14:36:04.783Z,48.71
2023-03-01T14:38:33.513Z,49.08
2023-03-01T14:41:03.119Z,49.80
2023-03-01T14:43:31.501Z,48.66
2023-03-01T14:45:58.271Z,49.32
2023-03-01T14:48:25.523Z,48.58
2023-03-01T14:50:52.147Z,49.10
2023-03-01T14:53:24.044Z,48.90
2023-03-01T14:56:00.407Z,48.76
2023-03-01T14:58:27.070Z,49.62
2023-03-01T15:00:58.562Z,48.95
2023-03-01T15:03:39.994Z,49.06
2023-03-01T15:06:07.876Z,48.79
2023-03-01T15:08:35.051Z,48.12
2023-03-01T15:11:21.471Z,49.66
2023-03-01T15:13:48.295Z,49.23
2023-03-01T15:16:16.637Z,48.78
2023-03-01T15:18:47.709Z,49.08
2023-03-01T15:21:24.610Z,50.13
2023-03-01T15:23:54.492Z,49.97
2023-03-01T15:26:25.873Z,49.77
2023-03-01T15:28:53.705Z,49.79
2023-03-01T15:31:22.429Z,49.81
2023-03-01T15:33:49.583Z,49.77
2023-03-01T15:36:31.350Z,50.02
2023-03-01T15:38:59.204Z,50.50
2023-03-01T15:41:31.933Z,50.70
2023-03-01T15:43:59.382Z,50.85
2023-03-01T15:46:36.101Z,50.19
2023-03-01T15:49:04.367Z,50.17
2023-03-01T15:51:38.316Z,50.90
2023-03-01T15:54:07.335Z,50.47
2023-03-01T15:56:34.096Z,51.28
2023-03-01T15:59:01.509Z,52.25
2023-03-01T16:01:28.565Z,52.25
2023-03-01T16:03:55.290Z,52.44
2023-03-01T16:06:21.808Z,52.72
2023-03-01T16:08:48.345Z,52.99
2023-03-01T16:11:19.433Z,53.89
2023-03-01T16:13:46.614Z,53.89
2023-03-01T16:16:16.080Z,53.93
2023-03-01T16:18:49.453Z,53.98
2023-03-01T16:21:19.830Z,54.15
2023-03-01T16:23:47.063Z,55.13
2023-03-01T16:26:14.070Z,54.92
2023-03-01T16:28:44.439Z,55.24
2023-03-01T16:31:11.323Z,55.47
2023-03-01T16:33:39.033Z,56.38
2023-03-01T16:36:12.858Z,56.42
2023-03-01T16:38:39.689Z,56.87
2023-03-01T16:41:06.500Z,57.32
2023-03-01T16:43:33.088Z,57.11
2023-03-01T16:45:59.964Z,57.64
2023-03-01T16:48:26.798Z,58.33
2023-03-01T16:50:56.720Z,58.35
2023-03-01T16:53:23.264Z,58.88
2023-03-01T16:55:57.097Z,59.43
2023-03-01T16:58:25.631Z,59.46
2023-03-01T17:00:54.999Z,59.90
2023-03-01T17:03:25.610Z,60.25
2023-03-01T17:05:52.212Z,60.81
2023-03-01T17:08:18.909Z,61.25
2023-03-01T17:10:45.467Z,61.46
2023-03-01T17:13:12.256Z,62.16
2023-03-01T17:15:39.468Z,62.22
2023-03-01T17:18:05.931Z,62.63
2023-03-01T17:20:32.430Z,62.84
2023-03-01T17:22:58.906Z,63.32
2023-03-01T17:25:25.432Z,63.55
2023-03-01T17:27:52.141Z,63.79
2023-03-01T17:30:18.731Z,64.11
2023-03-01T17:32:45.425Z,64.69
2023-03-01T17:35:12.225Z,64.74
2023-03-01T17:37:39.931Z,64.67
2023-03-01T17:40:10.036Z,64.85
2023-03-01T17:42:36.495Z,65.27
2023-03-01T17:45:03.158Z,65.36
2023-03-01T17:47:29.776Z,65.78
2023-03-01T17:49:56.372Z,65.67
2023-03-01T17:52:23.849Z,65.86
2023-03-01T17:54:51.473Z,65.90
2023-03-01T17:57:17.995Z,66.32
2023-03-01T17:59:44.539Z,66.65
2023-03-01T18:02:12.969Z,66.55
2023-03-01T18:04:39.514Z,67.16
2023-03-01T18:07:06.049Z,67.55
2023-03-01T18:09:32.630Z,67.59
2023-03-01T18:11:59.094Z,67.63
2023-03-01T18:14:29.663Z,67.95
2023-03-01T18:16:56.291Z,68.26
2023-03-01T18:19:22.909Z,68.52
2023-03-01T18:21:49.376Z,68.86
2023-03-01T18:24:15.930Z,68.73
2023-03-01T18:26:42.452Z,69.08
2023-03-01T18:29:10.533Z,69.66
2023-03-01T18:31:37.162Z,70.15
2023-03-01T18:34:03.795Z,70.01
2023-03-01T18:36:32.733Z,70.40
2023-03-01T18:39:01.307Z,70.53
2023-03-01T18:41:28.228Z,71.07
2023-03-01T18:43:55.962Z,71.14
2023-03-01T18:46:22.794Z,71.48
2023-03-01T18:48:49.805Z,71.95
2023-03-01T18:51:18.093Z,71.64
2023-03-01T18:53:44.708Z,72.12
2023-03-01T18:56:11.800Z,71.86
2023-03-01T18:58:38.919Z,71.98
2023-03-01T19:01:08.056Z,71.81
2023-03-01T19:03:35.392Z,72.32
2023-03-01T19:06:02.174Z,72.72
2023-03-01T19:08:29.377Z,72.85
2023-03-01T19:11:00.684Z,74.02
2023-03-01T19:13:27.792Z,72.97
2023-03-01T19:16:02.609Z,72.91
2023-03-01T19:18:29.182Z,73.67
2023-03-01T19:21:03.996Z,73.48
2023-03-01T19:23:31.403Z,73.80
2023-03-01T19:26:11.493Z,73.20
2023-03-01T19:28:39.561Z,73.25
2023-03-01T19:31:10.605Z,72.79
2023-03-01T19:33:37.519Z,72.77
2023-03-01T19:36:04.229Z,71.94
2023-03-01T19:38:30.875Z,71.46
2023-03-01T19:40:57.942Z,71.62
2023-03-01T19:43:25.172Z,70.96
2023-03-01T19:45:52.496Z,70.64
2023-03-01T19:48:19.084Z,71.15
2023-03-01T19:50:45.692Z,70.48
2023-03-01T19:53:12.873Z,70.14
2023-03-01T19:55:39.683Z,70.33
2023-03-01T19:58:06.767Z,70.53
2023-03-01T20:00:33.953Z,70.52
2023-03-01T20:03:00.913Z,70.42
2023-03-01T20:05:27.430Z,70.41
2023-03-01T20:08:00.006Z,70.29
2023-03-01T20:10:28.495Z,70.21
2023-03-01T20:12:55.045Z,70.32
2023-03-01T20:15:21.560Z,70.82
2023-03-01T20:17:48.101Z,70.96
2023-03-01T20:20:14.699Z,70.77
2023-03-01T20:22:41.491Z,70.58
2023-03-01T20:25:08.643Z,70.44
2023-03-01T20:27:35.214Z,70.79
2023-03-01T20:30:01.738Z,70.82
2023-03-01T20:32:28.238Z,71.43
2023-03-01T20:34:55.928Z,71.17
2023-03-01T20:37:22.892Z,71.38
2023-03-01T20:39:49.846Z,71.98
2023-03-01T20:42:16.736Z,72.14
2023-03-01T20:44:48.264Z,72.69
2023-03-01T20:47:14.953Z,73.16
2023-03-01T20:49:41.478Z,73.38
2023-03-01T20:52:08.162Z,74.23
2023-03-01T20:54:34.759Z,74.48
2023-03-01T20:57:01.198Z,74.94
2023-03-01T20:59:27.752Z,74.46
2023-03-01T21:01:54.298Z,74.57
2023-03-01T21:04:21.185Z,73.58
2023-03-01T21:06:47.917Z,74.02
2023-03-01T21:09:14.514Z,74.31
2023-03-01T21:11:41.136Z,74.29
2023-03-01T21:14:07.653Z,74.12
2023-03-01T21:16:35.258Z,74.20
2023-03-01T21:19:04.547Z,74.33
2023-03-01T21:21:31.250Z,74.75
2023-03-01T21:23:57.888Z,75.01
2023-03-01T21:26:25.670Z,75.60
2023-03-01T21:28:59.209Z,75.71
2023-03-01T21:31:31.928Z,75.70
2023-03-01T21:34:00.077Z,76.09
2023-03-01T21:36:28.224Z,76.05
2023-03-01T21:38:55.267Z,76.26
2023-03-01T21:41:24.608Z,77.03
2023-03-01T21:43:52.123Z,77.31
2023-03-01T21:46:23.049Z,77.46
2023-03-01T21:48:50.738Z,76.85
2023-03-01T21:51:18.887Z,77.26
2023-03-01T21:53:45.846Z,77.11
2023-03-01T21:56:18.607Z,77.05
2023-03-01T21:58:45.137Z,77.59
2023-03-01T22:01:13.652Z,77.01
2023-03-01T22:03:46.255Z,77.29
2023-03-01T22:06:19.844Z,77.41
2023-03-01T22:08:56.911Z,77.29
2023-03-01T22:11:25.905Z,76.87
2023-03-01T22:13:53.216Z,76.76
2023-03-01T22:16:20.525Z,76.14
2023-03-01T22:18:47.110Z,75.54
2023-03-01T22:21:13.680Z,75.40
2023-03-01T22:23:40.268Z,75.20
2023-03-01T22:26:07.823Z,75.10
2023-03-01T22:28:34.758Z,74.76
2023-03-01T22:31:07.251Z,74.47
2023-03-01T22:33:33.725Z,73.86
2023-03-01T22:36:00.285Z,73.97
2023-03-01T22:38:26.869Z,73.36
2023-03-01T22:40:57.308Z,73.33
2023-03-01T22:43:24.009Z,73.25
2023-03-01T22:45:50.506Z,72.49
2023-03-01T22:48:17.208Z,73.06
2023-03-01T22:50:44.357Z,73.09
2023-03-01T22:53:10.891Z,73.75
2023-03-01T22:55:37.433Z,73.66
2023-03-01T22:58:03.931Z,74.32
2023-03-01T23:00:30.580Z,73.82
2023-03-01T23:02:57.329Z,73.93
2023-03-01T23:05:23.981Z,73.67
2023-03-01T23:07:50.480Z,73.49
2023-03-01T23:10:16.970Z,72.80
2023-03-01T23:12:43.444Z,72.64
2023-03-01T23:15:10.544Z,72.54
2023-03-01T23:17:37.176Z,72.72
2023-03-01T23:20:07.776Z,72.20
2023-03-01T23:22:34.295Z,72.38
2023-03-01T23:25:00.852Z,72.78
2023-03-01T23:27:30.557Z,72.53
2023-03-01T23:29:57.089Z,72.93
2023-03-01T23:32:23.749Z,72.96
2023-03-01T23:34:50.254Z,72.88
2023-03-01T23:37:16.842Z,72.38
2023-03-01T23:39:43.379Z,72.80
2023-03-01T23:42:09.889Z,72.59
2023-03-01T23:44:38.901Z,72.48
2023-03-01T23:47:05.517Z,72.62
2023-03-01T23:49:32.123Z,72.05
2023-03-01T23:51:58.746Z,71.83
2023-03-01T23:54:25.717Z,72.20
2023-03-01T23:56:52.274Z,72.03
2023-03-01T23:59:20.279Z,72.11
